createdAt,value
2023-01-15T00:02:23.439Z,13.50
2023-01-15T00:04:51.921Z,12.90
2023-01-15T00:07:19.354Z,13.30
2023-01-15T00:09:46.809Z,14.30
2023-01-15T00:12:14.003Z,15.60
2023-01-15T00:14:41.722Z,14.20
2023-01-15T00:17:08.877Z,14.80
2023-01-15T00:19:36.464Z,14.40
2023-01-15T00:22:03.912Z,15.50
2023-01-15T00:24:50.384Z,13.00
2023-01-15T00:27:37.805Z,16.40
2023-01-15T00:30:05.371Z,15.40
2023-01-15T00:32:32.430Z,13.80
2023-01-15T00:34:59.760Z,14.60
2023-01-15T00:37:27.544Z,16.20
2023-01-15T00:39:54.736Z,14.60
2023-01-15T00:42:22.040Z,12.60
2023-01-15T00:44:49.400Z,15.20
2023-01-15T00:47:17.054Z,14.50
2023-01-15T00:49:45.228Z,15.70
2023-01-15T00:52:14.216Z,16.10
2023-01-15T00:54:41.201Z,15.00
2023-01-15T00:57:09.298Z,15.40
2023-01-15T00:59:36.274Z,14.50
2023-01-15T01:02:03.900Z,13.70
2023-01-15T01:04:30.989Z,14.30
2023-01-15T01:06:58.138Z,14.00
2023-01-15T01:09:25.183Z,15.30
2023-01-15T01:11:52.437Z,12.10
2023-01-15T01:14:19.664Z,15.70
2023-01-15T01:16:47.123Z,17.90
2023-01-15T01:19:20.114Z,16.60
2023-01-15T01:21:47.956Z,13.90
2023-01-15T01:24:18.154Z,13.90
2023-01-15T01:26:46.104Z,16.20
2023-01-15T01:29:14.483Z,13.70
2023-01-15T01:31:41.988Z,14.20
2023-01-15T01:34:10.017Z,14.10
2023-01-15T01:36:38.558Z,14.00
2023-01-15T01:39:06.694Z,13.40
2023-01-15T01:41:34.432Z,13.90
2023-01-15T01:44:05.791Z,14.60
2023-01-15T01:46:35.159Z,13.60
2023-01-15T01:49:10.295Z,12.70
2023-01-15T01:51:40.284Z,14.40
2023-01-15T01:54:07.461Z,13.00
2023-01-15T01:56:35.124Z,14.10
2023-01-15T01:59:02.169Z,14.20
2023-01-15T02:01:29.329Z,14.00
2023-01-15T02:03:57.713Z,14.20
2023-01-15T02:06:24.742Z,15.60
2023-01-15T02:08:52.386Z,13.10
2023-01-15T02:11:21.742Z,13.60
2023-01-15T02:14:12.908Z,13.30
2023-01-15T02:16:56.352Z,13.00
2023-01-15T02:20:05.996Z,16.70
2023-01-15T02:22:46.041Z,11.90
2023-01-15T02:25:18.930Z,13.30
2023-01-15T02:27:52.174Z,11.80
2023-01-15T02:30:26.030Z,13.80
2023-01-15T02:32:59.525Z,13.30
2023-01-15T02:35:34.867Z,13.60
2023-01-15T02:38:05.311Z,13.00
2023-01-15T02:40:32.956Z,12.50
2023-01-15T02:43:00.766Z,12.70
2023-01-15T02:45:30.967Z,13.40
2023-01-15T02:48:06.023Z,14.40
2023-01-15T02:50:37.322Z,12.40
2023-01-15T02:53:08.269Z,12.50
2023-01-15T02:55:39.638Z,12.60
2023-01-15T02:58:09.668Z,11.80
2023-01-15T03:00:39.912Z,12.90
2023-01-15T03:03:17.119Z,14.10
2023-01-15T03:06:03.227Z,12.70
2023-01-15T03:08:30.263Z,13.10
2023-01-15T03:11:14.366Z,13.00
2023-01-15T03:14:06.371Z,12.50
2023-01-15T03:16:35.327Z,12.00
2023-01-15T03:19:34.960Z,13.00
2023-01-15T03:22:08.350Z,13.60
2023-01-15T03:24:49.347Z,13.40
2023-01-15T03:27:17.395Z,11.90
2023-01-15T03:30:05.910Z,13.00
2023-01-15T03:32:32.995Z,12.80
2023-01-15T03:35:00.655Z,11.70
2023-01-15T03:37:28.623Z,13.80
2023-01-15T03:39:56.901Z,14.20
2023-01-15T03:42:40.843Z,15.40
2023-01-15T03:45:13.731Z,12.80
2023-01-15T03:47:59.151Z,15.80
2023-01-15T03:50:33.631Z,15.10
2023-01-15T03:53:32.397Z,14.40
2023-01-15T03:56:15.437Z,13.40
2023-01-15T03:58:48.538Z,12.00
2023-01-15T04:01:20.305Z,11.40
2023-01-15T04:03:49.378Z,13.50
2023-01-15T09:02:21.721Z,20.90
2023-01-15T09:04:48.844Z,23.40
2023-01-15T09:07:16.985Z,26.10
2023-01-15T09:09:45.225Z,40.30
2023-01-15T09:12:12.766Z,33.90
2023-01-15T09:14:55.368Z,19.50
2023-01-15T09:17:26.689Z,19.90
2023-01-15T09:19:53.669Z,17.40
2023-01-15T09:22:20.567Z,19.60
2023-01-15T09:24:47.760Z,17.90
2023-01-15T09:27:15.136Z,21.40
2023-01-15T09:29:42.674Z,20.10
2023-01-15T09:32:11.056Z,18.00
2023-01-15T09:34:38.427Z,17.10
2023-01-15T09:37:05.969Z,16.80
2023-01-15T09:39:33.426Z,15.40
2023-01-15T09:42:26.178Z,18.30
2023-01-15T09:45:14.259Z,18.10
2023-01-15T09:48:03.419Z,18.10
2023-01-15T09:50:46.296Z,20.20
2023-01-15T09:53:21.537Z,18.20
2023-01-15T09:55:50.905Z,18.70
2023-01-15T09:58:21.468Z,19.70
2023-01-15T10:00:50.371Z,32.40
2023-01-15T10:03:36.189Z,20.60
2023-01-15T10:06:09.428Z,19.10
2023-01-15T10:08:42.937Z,19.40
2023-01-15T10:11:16.350Z,18.40
2023-01-15T10:13:56.563Z,19.30
2023-01-15T10:16:26.300Z,21.70
2023-01-15T10:18:53.699Z,22.80
2023-01-15T10:21:42.503Z,18.90
2023-01-15T10:24:18.666Z,21.10
2023-01-15T10:26:59.395Z,18.30
2023-01-15T10:29:34.275Z,16.10
2023-01-15T10:32:29.987Z,25.50
2023-01-15T10:35:19.919Z,20.90
2023-01-15T10:38:22.181Z,18.90
2023-01-15T10:40:49.668Z,20.10
2023-01-15T10:43:25.618Z,26.50
2023-01-15T10:46:14.246Z,26.50
2023-01-15T10:48:46.301Z,21.70
2023-01-15T10:51:19.138Z,21.10
2023-01-15T10:54:05.876Z,22.90
2023-01-15T10:56:36.204Z,21.70
2023-01-15T10:59:19.967Z,19.70
2023-01-15T11:01:49.168Z,22.00
2023-01-15T11:04:16.995Z,24.50
2023-01-15T11:06:45.882Z,30.00
2023-01-15T11:09:22.569Z,22.60
2023-01-15T11:12:00.595Z,24.20
2023-01-15T11:14:57.089Z,26.40
2023-01-15T11:17:44.273Z,25.40
2023-01-15T11:20:43.054Z,22.80
2023-01-15T11:23:15.438Z,23.00
2023-01-15T11:25:57.517Z,28.80
2023-01-15T11:28:36.659Z,24.70
2023-01-15T11:31:04.486Z,18.90
2023-01-15T11:33:32.435Z,23.60
2023-01-15T11:36:01.796Z,24.40
2023-01-15T11:38:31.179Z,22.90
2023-01-15T11:41:02.871Z,21.60
2023-01-15T11:43:49.628Z,23.70
2023-01-15T11:46:49.422Z,21.00
2023-01-15T11:49:39.817Z,28.50
2023-01-15T11:52:10.562Z,26.40
2023-01-15T11:54:42.717Z,18.20
2023-01-15T11:57:11.128Z,20.80
2023-01-15T11:59:38.696Z,26.70
2023-01-15T12:02:32.983Z,37.70
2023-01-15T12:05:01.192Z,27.40
2023-01-15T12:07:28.863Z,31.10
2023-01-15T12:10:03.003Z,25.30
2023-01-15T12:13:16.153Z,22.20
2023-01-15T12:15:55.599Z,21.20
2023-01-15T12:19:01.236Z,22.10
2023-01-15T12:21:33.956Z,20.40
2023-01-15T12:24:14.573Z,20.00
2023-01-15T12:26:51.425Z,20.50
2023-01-15T12:29:18.803Z,21.00
2023-01-15T12:31:54.021Z,20.70
2023-01-15T12:35:29.648Z,22.80
2023-01-15T12:38:10.599Z,23.90
2023-01-15T12:40:52.344Z,19.60
2023-01-15T12:43:43.443Z,17.80
2023-01-15T12:46:17.008Z,15.10
2023-01-15T12:48:48.555Z,18.80
2023-01-15T12:51:23.720Z,19.10
2023-01-15T12:53:58.510Z,21.50
2023-01-15T12:56:29.768Z,19.50
2023-01-15T12:59:42.866Z,21.00
2023-01-15T18:27:48.458Z,34.20
2023-01-15T18:30:16.835Z,33.40
2023-01-15T18:32:45.819Z,36.10
2023-01-15T18:35:14.459Z,35.80
2023-01-15T18:37:43.470Z,35.50
2023-01-15T18:40:12.235Z,35.10
2023-01-15T18:42:59.472Z,34.80
2023-01-15T18:45:48.569Z,32.00
2023-01-15T18:48:16.542Z,33.70
2023-01-15T18:50:44.624Z,31.70
2023-01-15T18:53:15.854Z,30.60
2023-01-15T18:55:43.786Z,28.20
2023-01-15T18:58:11.612Z,28.20
2023-01-15T19:00:41.145Z,28.80
2023-01-15T19:03:14.587Z,23.90
2023-01-15T19:05:43.584Z,24.60
2023-01-15T19:08:12.898Z,26.80
2023-01-15T19:10:42.940Z,25.90
2023-01-15T19:13:13.169Z,25.20
2023-01-15T19:16:00.865Z,23.90
2023-01-15T19:18:52.287Z,23.10
2023-01-15T19:21:22.821Z,20.70
2023-01-15T19:23:51.281Z,23.00
2023-01-15T19:26:19.705Z,24.00
2023-01-15T19:28:47.808Z,22.50
2023-01-15T19:31:36.658Z,25.60
2023-01-15T19:34:32.165Z,24.00
2023-01-15T19:36:57.105Z,27.60
2023-01-15T19:39:26.365Z,25.30
2023-01-15T19:42:16.373Z,25.20
2023-01-15T19:45:05.417Z,24.50
2023-01-15T19:48:16.997Z,22.50
2023-01-15T19:50:45.369Z,23.70
2023-01-15T19:53:13.393Z,23.40
2023-01-15T19:55:46.024Z,26.10
2023-01-15T19:58:14.420Z,26.30
2023-01-15T20:00:45.010Z,22.80
2023-01-15T20:03:13.198Z,22.50
2023-01-15T20:05:42.923Z,23.30
2023-01-15T20:08:17.647Z,20.00
2023-01-15T20:10:49.933Z,23.70
2023-01-15T20:13:40.984Z,24.80
2023-01-15T20:16:12.823Z,25.10
2023-01-15T20:18:40.641Z,26.10
2023-01-15T20:21:07.957Z,24.70
2023-01-15T20:23:36.390Z,25.00
2023-01-15T20:26:05.578Z,23.70
2023-01-15T20:28:36.527Z,24.70
2023-01-15T20:31:13.885Z,23.90
2023-01-15T20:33:47.148Z,24.90
2023-01-15T20:36:15.547Z,24.40
2023-01-15T20:38:42.963Z,22.60
2023-01-15T20:41:29.944Z,24.20
2023-01-15T20:44:24.661Z,24.00
2023-01-15T20:46:52.770Z,22.90
2023-01-15T20:49:28.733Z,24.60
2023-01-15T20:51:57.902Z,24.10
2023-01-15T20:54:25.866Z,25.90
2023-01-15T20:56:54.803Z,25.90
2023-01-15T20:59:22.372Z,26.10
2023-01-15T21:01:49.980Z,26.70
2023-01-15T21:04:18.552Z,23.70
2023-01-15T21:06:47.510Z,23.70
2023-01-15T21:09:15.198Z,24.40
2023-01-15T21:11:43.725Z,22.00
2023-01-15T21:14:12.194Z,25.80
2023-01-15T21:16:40.074Z,27.20
2023-01-15T21:19:12.116Z,25.60
2023-01-15T21:21:40.159Z,24.10
2023-01-15T21:24:07.946Z,24.20
2023-01-15T21:26:36.110Z,22.50
2023-01-15T21:29:03.683Z,21.10
2023-01-15T21:31:30.955Z,23.90
2023-01-15T21:33:58.517Z,22.00
2023-01-15T21:36:26.023Z,21.90
2023-01-15T21:38:58.463Z,21.30
2023-01-15T21:41:44.534Z,22.60
2023-01-15T21:44:37.770Z,24.60
2023-01-15T21:47:06.577Z,22.10
2023-01-15T21:49:34.205Z,23.10
2023-01-15T21:52:04.410Z,24.60
2023-01-15T21:54:32.227Z,26.20
2023-01-15T21:56:59.835Z,23.00
2023-01-15T21:59:28.718Z,23.40
2023-01-15T22:01:57.220Z,22.20
2023-01-15T22:04:25.664Z,24.30
2023-01-15T22:06:53.183Z,23.90
2023-01-15T22:09:21.009Z,25.70
2023-01-15T22:11:48.694Z,28.20
2023-01-15T22:14:28.900Z,27.10
2023-01-15T22:16:57.702Z,27.30
2023-01-15T22:19:27.012Z,29.80
2023-01-15T22:21:56.739Z,27.10
2023-01-15T22:24:32.268Z,26.00
2023-01-15T22:27:00.298Z,27.80
2023-01-15T22:29:32.623Z,27.50
2023-01-15T22:32:00.322Z,27.60
2023-01-15T22:34:28.284Z,26.50
2023-01-15T22:36:55.910Z,27.80
2023-01-15T22:39:23.976Z,29.60
2023-01-15T22:42:10.165Z,28.00
2023-01-15T22:44:37.870Z,27.40
2023-01-15T22:47:05.319Z,24.00
2023-01-15T22:49:32.740Z,25.50
2023-01-15T22:52:00.188Z,26.90
2023-01-15T22:54:27.533Z,27.30
2023-01-15T22:57:16.880Z,26.10
2023-01-15T22:59:45.280Z,27.00
2023-01-15T23:02:12.975Z,26.70
2023-01-15T23:04:40.838Z,26.10
2023-01-15T23:07:09.182Z,28.60
2023-01-15T23:09:36.942Z,28.50
2023-01-15T23:12:04.563Z,26.90
2023-01-15T23:14:32.219Z,26.90
2023-01-15T23:17:00.448Z,25.40
2023-01-15T23:19:28.023Z,24.50
2023-01-15T23:22:00.333Z,24.40
2023-01-15T23:24:28.283Z,24.40
2023-01-15T23:26:55.579Z,25.50
2023-01-15T23:29:34.810Z,24.60
2023-01-15T23:32:02.695Z,25.50
2023-01-15T23:34:30.432Z,26.40
2023-01-15T23:36:58.022Z,24.90
2023-01-15T23:39:25.571Z,26.80
2023-01-15T23:42:11.578Z,26.20
2023-01-15T23:44:57.545Z,25.70
2023-01-15T23:47:24.906Z,24.70
2023-01-15T23:49:53.098Z,25.20
2023-01-15T23:52:20.422Z,24.60
2023-01-15T23:54:47.788Z,25.60
2023-01-15T23:57:15.182Z,26.40
2023-01-15T23:59:44.552Z,27.00
